createdAt,value
2022-10-30T00:00:42.039Z,6.68
2022-10-30T00:03:16.685Z,6.20
2022-10-30T00:05:45.714Z,6.10
2022-10-30T00:08:14.921Z,6.50
2022-10-30T00:10:42.587Z,6.25
2022-10-30T00:13:10.129Z,6.20
2022-10-30T00:15:37.904Z,6.25
2022-10-30T00:18:05.364Z,6.18
2022-10-30T00:20:32.642Z,6.63
2022-10-30T00:22:59.985Z,6.93
2022-10-30T00:25:27.415Z,6.50
2022-10-30T00:27:54.445Z,6.43
2022-10-30T00:30:21.482Z,6.63
2022-10-30T00:32:48.603Z,6.25
2022-10-30T00:35:15.697Z,5.80
2022-10-30T00:37:42.704Z,6.43
2022-10-30T00:40:19.188Z,5.97
2022-10-30T00:42:46.295Z,6.43
2022-10-30T00:45:15.276Z,5.82
2022-10-30T00:47:46.970Z,6.30
2022-10-30T00:53:06.921Z,5.65
2022-10-30T00:55:44.075Z,6.15
2022-10-30T00:58:15.337Z,5.90
2022-10-30T01:00:46.755Z,5.60
2022-10-30T01:03:14.879Z,6.35
2022-10-30T01:05:45.940Z,5.85
2022-10-30T01:08:13.020Z,5.95
2022-10-30T01:10:40.461Z,5.82
2022-10-30T01:13:07.717Z,6.20
2022-10-30T01:15:40.559Z,6.95
2022-10-30T01:18:43.573Z,6.22
2022-10-30T01:21:38.741Z,6.03
2022-10-30T01:24:39.348Z,6.57
2022-10-30T01:27:34.022Z,6.10
2022-10-30T01:30:18.438Z,6.43
2022-10-30T01:33:25.334Z,6.35
2022-10-30T01:36:15.175Z,5.93
2022-10-30T01:38:48.855Z,5.70
2022-10-30T01:41:15.930Z,6.05
2022-10-30T01:43:45.782Z,6.18
2022-10-30T01:46:42.088Z,6.10
2022-10-30T01:49:37.932Z,6.00
2022-10-30T01:52:41.585Z,5.38
2022-10-30T01:55:27.314Z,5.95
2022-10-30T01:58:20.528Z,6.28
2022-10-30T02:00:58.475Z,5.72
2022-10-30T02:03:27.570Z,6.40
2022-10-30T02:05:55.152Z,5.70
2022-10-30T02:08:22.964Z,5.53
2022-10-30T02:10:52.790Z,6.20
2022-10-30T02:13:20.355Z,6.45
2022-10-30T02:15:48.072Z,5.90
2022-10-30T02:18:15.161Z,6.68
2022-10-30T02:20:42.584Z,5.78
2022-10-30T02:23:13.616Z,6.15
2022-10-30T02:25:40.650Z,6.32
2022-10-30T02:28:07.639Z,5.82
2022-10-30T02:30:34.700Z,5.50
2022-10-30T02:33:02.413Z,6.03
2022-10-30T02:35:30.732Z,6.13
2022-10-30T02:37:57.917Z,5.32
2022-10-30T02:40:25.170Z,5.05
2022-10-30T02:42:53.638Z,6.28
2022-10-30T02:45:21.550Z,5.38
2022-10-30T02:47:48.794Z,6.20
2022-10-30T02:50:15.858Z,6.10
2022-10-30T02:52:42.999Z,6.45
2022-10-30T02:55:10.299Z,5.72
2022-10-30T02:57:37.377Z,5.10
2022-10-30T03:00:05.310Z,6.60
2022-10-30T03:02:32.321Z,5.82
2022-10-30T03:04:59.376Z,5.88
2022-10-30T03:07:26.453Z,5.97
2022-10-30T03:09:54.599Z,6.38
2022-10-30T03:12:22.359Z,5.50
2022-10-30T03:14:49.400Z,5.75
2022-10-30T03:17:16.453Z,5.80
2022-10-30T03:19:43.542Z,5.80
2022-10-30T03:22:10.589Z,5.55
2022-10-30T03:24:38.369Z,5.97
2022-10-30T03:27:05.457Z,6.18
2022-10-30T03:29:32.476Z,5.93
2022-10-30T03:31:59.465Z,5.15
2022-10-30T03:34:27.876Z,5.38
2022-10-30T03:36:55.036Z,5.47
2022-10-30T03:39:22.106Z,6.03
2022-10-30T03:41:49.224Z,5.85
2022-10-30T03:44:16.271Z,5.63
2022-10-30T03:46:43.277Z,5.53
2022-10-30T03:49:10.312Z,5.82
2022-10-30T03:51:37.340Z,5.55
2022-10-30T03:54:04.425Z,4.88
2022-10-30T03:56:31.477Z,5.85
2022-10-30T03:58:58.484Z,4.80
2022-10-30T04:01:25.602Z,5.35
2022-10-30T04:03:52.760Z,5.80
2022-10-30T04:06:19.779Z,5.25
2022-10-30T04:08:46.825Z,5.50
2022-10-30T04:11:13.871Z,5.72
2022-10-30T04:13:40.936Z,5.68
2022-10-30T04:16:08.116Z,5.65
2022-10-30T04:18:35.183Z,5.68
2022-10-30T04:21:02.546Z,5.25
2022-10-30T04:23:29.780Z,4.95
2022-10-30T04:25:56.871Z,5.28
2022-10-30T04:28:23.940Z,5.25
2022-10-30T04:30:51.002Z,5.38
2022-10-30T04:33:18.123Z,4.60
2022-10-30T04:35:45.184Z,5.53
2022-10-30T04:38:14.671Z,5.53
2022-10-30T04:40:43.519Z,5.47
2022-10-30T04:43:11.489Z,5.18
2022-10-30T04:45:39.455Z,4.78
2022-10-30T04:48:10.585Z,5.75
2022-10-30T04:50:38.243Z,4.78
2022-10-30T04:53:10.478Z,5.45
2022-10-30T04:55:37.534Z,5.35
2022-10-30T04:58:04.595Z,5.43
2022-10-30T05:00:32.480Z,5.82
2022-10-30T05:03:03.542Z,5.30
2022-10-30T05:05:32.095Z,5.00
2022-10-30T05:07:59.905Z,4.97
2022-10-30T05:10:27.460Z,4.18
2022-10-30T05:12:54.580Z,5.43
2022-10-30T05:15:22.168Z,4.75
2022-10-30T05:17:56.526Z,5.10
2022-10-30T05:20:23.803Z,4.75
2022-10-30T05:22:56.225Z,4.85
2022-10-30T05:25:24.231Z,4.97
2022-10-30T05:27:51.277Z,5.00
2022-10-30T05:30:18.251Z,4.82
2022-10-30T05:32:45.330Z,5.30
2022-10-30T05:35:12.543Z,4.78
2022-10-30T05:37:39.679Z,4.57
2022-10-30T05:40:07.264Z,4.75
2022-10-30T05:42:34.260Z,5.72
2022-10-30T05:45:02.306Z,5.45
2022-10-30T05:47:29.715Z,4.97
2022-10-30T05:49:56.690Z,5.07
2022-10-30T05:52:23.673Z,4.47
2022-10-30T05:54:50.663Z,5.25
2022-10-30T05:57:17.667Z,4.68
2022-10-30T05:59:44.714Z,4.80
2022-10-30T06:02:11.854Z,4.50
2022-10-30T06:04:38.933Z,5.07
2022-10-30T06:07:05.977Z,5.18
2022-10-30T06:09:32.972Z,4.90
2022-10-30T06:12:00.035Z,4.30
2022-10-30T06:14:27.035Z,4.78
2022-10-30T06:16:54.046Z,5.03
2022-10-30T06:19:21.188Z,5.93
2022-10-30T06:21:48.475Z,4.55
2022-10-30T06:24:15.560Z,4.95
2022-10-30T06:26:42.585Z,4.38
2022-10-30T06:29:09.596Z,4.60
2022-10-30T06:31:36.633Z,4.60
2022-10-30T06:34:03.657Z,4.57
2022-10-30T06:36:30.707Z,4.25
2022-10-30T06:38:57.826Z,4.72
2022-10-30T06:41:29.127Z,4.68
2022-10-30T06:43:57.521Z,4.57
2022-10-30T06:46:27.434Z,4.22
2022-10-30T06:48:57.975Z,4.65
2022-10-30T06:51:25.284Z,4.85
2022-10-30T06:53:52.330Z,4.68
2022-10-30T06:56:19.311Z,4.63
2022-10-30T06:58:46.316Z,4.28
2022-10-30T07:01:13.554Z,4.40
2022-10-30T07:03:40.618Z,4.28
2022-10-30T07:06:07.871Z,4.20
2022-10-30T07:08:34.876Z,4.32
2022-10-30T07:11:01.864Z,4.18
2022-10-30T07:13:28.830Z,3.90
2022-10-30T07:15:55.898Z,4.63
2022-10-30T07:18:22.918Z,4.45
2022-10-30T07:20:56.420Z,4.13
2022-10-30T07:23:23.871Z,4.50
2022-10-30T07:25:50.878Z,4.25
2022-10-30T07:28:17.877Z,4.60
2022-10-30T07:30:44.877Z,4.35
2022-10-30T07:33:11.893Z,4.30
2022-10-30T07:35:38.954Z,4.43
2022-10-30T07:38:11.296Z,4.90
2022-10-30T07:40:38.598Z,4.55
2022-10-30T07:43:06.135Z,3.75
2022-10-30T07:45:33.724Z,4.20
2022-10-30T07:48:01.265Z,4.30
2022-10-30T07:50:28.894Z,3.80
2022-10-30T07:52:56.048Z,4.28
2022-10-30T07:55:23.364Z,3.90
2022-10-30T07:57:50.727Z,3.95
2022-10-30T08:00:18.369Z,4.10
2022-10-30T08:02:50.861Z,3.97
2022-10-30T08:05:18.465Z,3.42
2022-10-30T08:07:47.138Z,4.88
2022-10-30T08:10:14.165Z,4.45
2022-10-30T08:12:44.040Z,4.60
2022-10-30T08:15:11.926Z,3.58
2022-10-30T08:17:43.812Z,4.20
2022-10-30T08:20:12.498Z,4.25
2022-10-30T08:22:51.695Z,4.05
2022-10-30T08:25:20.413Z,4.20
2022-10-30T08:28:02.204Z,4.18
2022-10-30T08:30:34.401Z,3.85
2022-10-30T08:33:03.774Z,4.30
2022-10-30T08:35:30.814Z,4.15
2022-10-30T08:37:59.074Z,4.43
2022-10-30T08:40:27.381Z,4.20
2022-10-30T08:42:56.054Z,3.90
2022-10-30T08:45:29.713Z,4.35
2022-10-30T08:48:06.358Z,4.13
2022-10-30T08:50:34.348Z,4.30
2022-10-30T08:53:05.282Z,4.70
2022-10-30T08:55:33.645Z,4.70
2022-10-30T08:58:01.151Z,4.13
2022-10-30T09:00:29.226Z,4.05
2022-10-30T09:02:56.732Z,4.53
2022-10-30T09:05:24.149Z,5.03
2022-10-30T09:07:57.848Z,4.57
2022-10-30T09:10:25.100Z,4.72
2022-10-30T09:12:57.194Z,5.05
2022-10-30T09:15:25.070Z,4.43
2022-10-30T09:17:57.718Z,5.38
2022-10-30T09:20:25.865Z,4.97
2022-10-30T09:22:52.954Z,5.30
2022-10-30T09:25:20.015Z,5.00
2022-10-30T09:27:47.274Z,5.32
2022-10-30T09:30:15.184Z,5.38
2022-10-30T09:32:42.242Z,5.53
2022-10-30T09:35:09.772Z,4.32
2022-10-30T09:37:37.717Z,5.43
2022-10-30T09:40:06.037Z,4.85
2022-10-30T09:42:46.811Z,5.72
2022-10-30T09:45:48.883Z,5.47
2022-10-30T09:48:47.531Z,5.30
2022-10-30T09:51:47.093Z,5.07
2022-10-30T09:54:39.069Z,5.77
2022-10-30T09:57:32.501Z,5.05
2022-10-30T10:00:11.112Z,5.82
2022-10-30T10:03:17.840Z,5.50
2022-10-30T10:05:55.294Z,5.47
2022-10-30T10:08:51.173Z,5.30
2022-10-30T10:11:34.218Z,5.20
2022-10-30T10:14:09.786Z,5.47
2022-10-30T10:16:40.962Z,6.55
2022-10-30T10:19:33.903Z,5.15
2022-10-30T10:22:03.386Z,5.25
2022-10-30T10:24:34.708Z,5.53
2022-10-30T10:27:41.407Z,5.30
2022-10-30T10:30:20.927Z,5.55
2022-10-30T10:33:26.754Z,5.50
2022-10-30T10:36:28.664Z,4.93
2022-10-30T10:39:23.957Z,6.20
2022-10-30T10:42:06.706Z,5.32
2022-10-30T10:45:01.481Z,5.40
2022-10-30T10:48:08.240Z,5.25
2022-10-30T10:50:41.425Z,5.93
2022-10-30T10:53:23.114Z,5.57
2022-10-30T10:55:54.020Z,5.78
2022-10-30T10:58:51.880Z,5.10
2022-10-30T11:01:23.853Z,5.45
2022-10-30T11:03:57.990Z,6.00
2022-10-30T11:06:29.146Z,5.50
2022-10-30T11:09:20.078Z,5.50
2022-10-30T11:11:52.151Z,5.60
2022-10-30T11:14:21.816Z,5.40
2022-10-30T11:17:19.295Z,5.13
2022-10-30T11:19:51.701Z,5.13
2022-10-30T11:22:36.330Z,5.20
2022-10-30T11:25:26.743Z,5.68
2022-10-30T11:27:58.518Z,5.38
2022-10-30T11:30:28.726Z,5.50
2022-10-30T11:32:57.226Z,6.20
2022-10-30T11:35:25.729Z,5.45
2022-10-30T11:38:13.834Z,5.15
2022-10-30T11:40:48.588Z,5.50
2022-10-30T11:43:20.509Z,5.57
2022-10-30T11:45:48.267Z,5.28
2022-10-30T11:48:31.636Z,5.88
2022-10-30T11:51:02.815Z,6.07
2022-10-30T11:53:48.117Z,5.65
2022-10-30T11:56:23.071Z,5.38
2022-10-30T11:58:53.583Z,5.80
2022-10-30T12:01:27.100Z,5.70
2022-10-30T12:03:55.705Z,5.68
2022-10-30T12:06:30.221Z,5.25
2022-10-30T12:09:21.085Z,6.10
2022-10-30T12:11:48.573Z,5.68
2022-10-30T12:14:24.509Z,5.88
2022-10-30T12:16:57.317Z,6.13
2022-10-30T12:19:25.798Z,5.72
2022-10-30T12:21:58.858Z,5.85
2022-10-30T12:24:32.622Z,6.20
2022-10-30T12:27:03.641Z,6.68
2022-10-30T12:30:08.267Z,6.28
2022-10-30T12:32:56.013Z,5.80
2022-10-30T12:35:46.384Z,6.60
2022-10-30T12:38:24.359Z,6.30
2022-10-30T12:41:17.167Z,6.63
2022-10-30T12:43:54.316Z,5.70
2022-10-30T12:46:41.790Z,5.80
2022-10-30T12:49:20.695Z,6.82
2022-10-30T12:52:01.966Z,5.43
2022-10-30T12:54:55.143Z,6.35
2022-10-30T12:57:31.020Z,5.82
2022-10-30T13:00:18.482Z,5.95
2022-10-30T13:02:58.312Z,6.00
2022-10-30T13:05:47.781Z,6.25
2022-10-30T13:08:38.850Z,6.03
2022-10-30T13:11:29.026Z,6.07
2022-10-30T13:13:58.320Z,5.95
2022-10-30T13:16:30.707Z,6.00
2022-10-30T13:19:00.788Z,6.57
2022-10-30T13:21:39.423Z,7.72
2022-10-30T13:24:21.580Z,6.32
2022-10-30T13:26:56.730Z,6.63
2022-10-30T13:29:33.988Z,6.10
2022-10-30T13:32:30.575Z,6.95
2022-10-30T13:35:26.684Z,6.40
2022-10-30T13:38:24.099Z,6.55
2022-10-30T13:41:30.880Z,5.85
2022-10-30T13:44:37.568Z,6.10
2022-10-30T13:47:32.770Z,6.10
2022-10-30T13:50:26.812Z,7.05
2022-10-30T13:53:00.456Z,6.22
2022-10-30T13:55:31.327Z,6.60
2022-10-30T13:58:08.610Z,6.35
2022-10-30T14:00:59.886Z,6.13
2022-10-30T14:03:40.867Z,6.40
2022-10-30T14:06:33.681Z,7.15
2022-10-30T14:09:30.620Z,6.72
2022-10-30T14:12:20.979Z,6.38
2022-10-30T14:17:17.369Z,6.80
2022-10-30T14:20:24.105Z,7.22
2022-10-30T14:23:15.582Z,7.13
2022-10-30T14:25:43.247Z,7.30
2022-10-30T14:28:21.767Z,7.00
2022-10-30T14:31:01.208Z,7.35
2022-10-30T14:33:50.264Z,6.80
2022-10-30T14:36:24.242Z,7.32
2022-10-30T14:38:59.381Z,7.35
2022-10-30T14:42:06.353Z,7.68
2022-10-30T14:45:03.038Z,7.47
2022-10-30T14:47:55.561Z,7.30
2022-10-30T14:50:54.328Z,6.65
2022-10-30T14:54:01.079Z,7.00
2022-10-30T14:56:41.134Z,7.25
2022-10-30T14:59:24.186Z,7.43
2022-10-30T15:02:24.113Z,7.57
2022-10-30T15:05:19.101Z,7.63
2022-10-30T15:07:53.621Z,7.28
2022-10-30T15:10:29.392Z,7.07
2022-10-30T15:13:21.014Z,6.63
2022-10-30T15:16:03.228Z,7.10
2022-10-30T15:18:31.191Z,6.55
2022-10-30T15:21:05.026Z,6.80
2022-10-30T15:23:35.500Z,6.47
2022-10-30T15:26:09.506Z,6.70
2022-10-30T15:28:39.188Z,6.57
2022-10-30T15:31:23.562Z,6.20
2022-10-30T15:33:51.143Z,6.50
2022-10-30T15:36:24.580Z,6.47
2022-10-30T15:39:19.894Z,5.78
2022-10-30T15:42:04.327Z,6.25
2022-10-30T15:44:34.030Z,6.53
2022-10-30T15:47:03.480Z,5.45
2022-10-30T15:49:35.245Z,5.83
2022-10-30T15:52:06.407Z,6.50
2022-10-30T15:54:34.122Z,6.70
2022-10-30T15:59:57.260Z,6.43
2022-10-30T16:02:27.162Z,6.45
2022-10-30T16:04:54.625Z,6.55
2022-10-30T16:07:27.581Z,6.00
2022-10-30T16:10:01.397Z,6.32
2022-10-30T16:12:31.172Z,6.22
2022-10-30T16:15:02.235Z,6.68
2022-10-30T16:17:29.376Z,5.97
2022-10-30T16:20:01.108Z,6.25
2022-10-30T16:22:36.294Z,6.10
2022-10-30T16:25:07.637Z,6.03
2022-10-30T16:27:42.861Z,5.47
2022-10-30T16:30:14.332Z,6.35
2022-10-30T16:32:45.141Z,5.63
2022-10-30T16:35:13.116Z,6.75
2022-10-30T16:37:41.099Z,6.28
2022-10-30T16:40:15.522Z,6.10
2022-10-30T16:42:50.550Z,5.60
2022-10-30T16:45:46.571Z,6.68
2022-10-30T16:48:28.686Z,6.05
2022-10-30T16:51:01.133Z,5.95
2022-10-30T16:53:28.935Z,6.07
2022-10-30T16:55:58.083Z,5.75
2022-10-30T16:58:28.445Z,5.38
2022-10-30T17:03:26.676Z,6.45
2022-10-30T17:06:00.116Z,6.00
2022-10-30T17:08:40.997Z,6.55
2022-10-30T17:11:18.848Z,6.30
2022-10-30T17:13:59.858Z,5.65
2022-10-30T17:16:32.427Z,6.10
2022-10-30T17:19:02.389Z,5.55
2022-10-30T17:21:42.985Z,6.35
2022-10-30T17:24:22.682Z,6.03
2022-10-30T17:27:01.251Z,5.97
2022-10-30T17:29:45.052Z,5.75
2022-10-30T17:32:20.403Z,5.82
2022-10-30T17:34:48.377Z,5.75
2022-10-30T17:37:15.396Z,5.78
2022-10-30T17:39:42.390Z,5.80
2022-10-30T17:42:11.362Z,6.50
2022-10-30T17:44:38.411Z,5.93
2022-10-30T17:47:20.416Z,5.60
2022-10-30T17:49:49.507Z,6.00
2022-10-30T17:52:19.125Z,5.35
2022-10-30T17:54:46.146Z,5.80
2022-10-30T17:57:15.883Z,5.05
2022-10-30T17:59:43.494Z,6.20
2022-10-30T18:02:19.211Z,5.68
2022-10-30T18:04:47.637Z,5.53
2022-10-30T18:07:16.384Z,5.65
2022-10-30T18:09:44.007Z,4.93
2022-10-30T18:12:17.253Z,5.10
2022-10-30T18:14:45.787Z,5.35
2022-10-30T18:17:13.022Z,5.45
2022-10-30T18:19:40.068Z,5.72
2022-10-30T18:22:07.100Z,5.30
2022-10-30T18:24:34.238Z,6.03
2022-10-30T18:27:01.331Z,5.82
2022-10-30T18:29:28.370Z,5.63
2022-10-30T18:31:55.417Z,5.50
2022-10-30T18:34:22.396Z,5.57
2022-10-30T18:36:49.727Z,5.93
2022-10-30T18:39:16.731Z,5.00
2022-10-30T18:41:46.501Z,4.70
2022-10-30T18:44:15.798Z,5.22
2022-10-30T18:46:43.177Z,5.07
2022-10-30T18:49:10.422Z,5.18
2022-10-30T18:51:37.612Z,5.05
2022-10-30T18:54:13.662Z,5.53
2022-10-30T18:56:40.689Z,5.35
2022-10-30T18:59:07.804Z,4.82
2022-10-30T19:01:35.764Z,5.80
2022-10-30T19:04:04.462Z,5.22
2022-10-30T19:06:34.607Z,5.28
2022-10-30T19:09:02.201Z,4.93
2022-10-30T19:11:31.313Z,5.47
2022-10-30T19:13:59.649Z,5.38
2022-10-30T19:16:27.145Z,5.10
2022-10-30T19:18:54.444Z,5.20
2022-10-30T19:21:23.453Z,5.28
2022-10-30T19:23:50.539Z,5.05
2022-10-30T19:26:17.922Z,5.22
2022-10-30T19:28:45.899Z,5.45
2022-10-30T19:31:15.045Z,4.88
2022-10-30T19:33:42.368Z,4.65
2022-10-30T19:36:31.381Z,5.32
2022-10-30T19:38:58.402Z,5.28
2022-10-30T19:41:25.535Z,4.95
2022-10-30T19:43:53.336Z,5.15
2022-10-30T19:46:20.697Z,5.25
2022-10-30T19:49:03.104Z,5.28
2022-10-30T19:51:30.149Z,4.78
2022-10-30T19:53:57.214Z,5.13
2022-10-30T19:56:24.424Z,4.65
2022-10-30T19:58:51.526Z,5.45
2022-10-30T20:01:18.719Z,5.03
2022-10-30T20:03:45.916Z,4.88
2022-10-30T20:06:13.965Z,5.32
2022-10-30T20:08:41.325Z,4.90
2022-10-30T20:11:08.789Z,4.88
2022-10-30T20:13:37.364Z,5.30
2022-10-30T20:16:05.798Z,4.82
2022-10-30T20:18:35.322Z,4.95
2022-10-30T20:21:08.468Z,5.47
2022-10-30T20:23:35.892Z,5.30
2022-10-30T20:26:17.041Z,4.88
2022-10-30T20:28:45.448Z,4.90
2022-10-30T20:31:13.325Z,5.15
2022-10-30T20:33:40.542Z,5.03
2022-10-30T20:36:07.864Z,4.85
2022-10-30T20:38:35.316Z,4.78
2022-10-30T20:41:04.406Z,5.35
2022-10-30T20:43:37.271Z,4.90
2022-10-30T20:46:06.551Z,4.70
2022-10-30T20:48:33.598Z,4.53
2022-10-30T20:51:01.714Z,4.90
2022-10-30T20:53:30.001Z,4.82
2022-10-30T20:55:57.332Z,5.20
2022-10-30T20:58:25.034Z,5.30
2022-10-30T21:00:55.659Z,5.28
2022-10-30T21:03:22.822Z,5.00
2022-10-30T21:05:58.385Z,5.20
2022-10-30T21:08:26.746Z,4.60
2022-10-30T21:10:58.397Z,4.97
2022-10-30T21:13:25.972Z,5.07
2022-10-30T21:15:53.016Z,4.95
2022-10-30T21:18:20.341Z,4.93
2022-10-30T21:20:47.389Z,4.93
2022-10-30T21:23:14.636Z,4.63
2022-10-30T21:25:41.784Z,4.45
2022-10-30T21:28:08.896Z,4.72
2022-10-30T21:30:35.976Z,4.05
2022-10-30T21:33:03.558Z,4.40
2022-10-30T21:35:31.049Z,4.95
2022-10-30T21:37:58.097Z,5.10
2022-10-30T21:40:25.132Z,4.82
2022-10-30T21:42:52.103Z,4.75
2022-10-30T21:45:19.175Z,4.50
2022-10-30T21:47:49.227Z,4.45
2022-10-30T21:50:16.308Z,4.65
2022-10-30T21:52:43.486Z,4.30
2022-10-30T21:55:10.568Z,4.47
2022-10-30T21:57:37.576Z,4.20
2022-10-30T22:00:06.184Z,4.57
2022-10-30T22:02:34.709Z,5.40
2022-10-30T22:05:01.744Z,4.53
2022-10-30T22:07:28.770Z,4.60
2022-10-30T22:09:55.805Z,4.65
2022-10-30T22:12:22.836Z,4.63
2022-10-30T22:14:49.832Z,4.53
2022-10-30T22:17:16.853Z,4.50
2022-10-30T22:19:43.836Z,4.32
2022-10-30T22:22:11.329Z,4.68
2022-10-30T22:24:38.430Z,4.38
2022-10-30T22:27:05.449Z,4.55
2022-10-30T22:29:32.574Z,4.53
2022-10-30T22:31:59.599Z,4.57
2022-10-30T22:34:26.556Z,4.90
2022-10-30T22:36:53.565Z,4.63
2022-10-30T22:39:20.565Z,4.65
2022-10-30T22:41:47.679Z,4.45
2022-10-30T22:44:18.682Z,4.90
2022-10-30T22:46:46.155Z,4.07
2022-10-30T22:49:13.211Z,4.50
2022-10-30T22:51:40.248Z,4.10
2022-10-30T22:54:12.219Z,3.72
2022-10-30T22:56:40.658Z,4.45
2022-10-30T22:59:11.300Z,4.70
2022-10-30T23:01:39.732Z,4.53
2022-10-30T23:04:09.694Z,3.70
2022-10-30T23:06:37.088Z,4.40
2022-10-30T23:09:08.158Z,4.30
2022-10-30T23:11:35.241Z,4.22
2022-10-30T23:14:02.431Z,3.58
2022-10-30T23:16:29.980Z,3.65
2022-10-30T23:18:58.909Z,4.32
2022-10-30T23:21:28.414Z,4.32
2022-10-30T23:23:56.537Z,3.83
2022-10-30T23:26:27.694Z,4.20
2022-10-30T23:28:55.906Z,4.07
2022-10-30T23:31:33.658Z,4.18
2022-10-30T23:34:03.312Z,3.58
2022-10-30T23:36:30.667Z,4.20
2022-10-30T23:39:00.373Z,4.10
2022-10-30T23:41:29.968Z,4.10
2022-10-30T23:43:59.128Z,4.80
2022-10-30T23:46:30.405Z,4.20
2022-10-30T23:48:57.860Z,3.83
2022-10-30T23:51:25.377Z,3.85
2022-10-30T23:53:53.112Z,4.68
2022-10-30T23:56:21.016Z,3.50
2022-10-30T23:58:50.296Z,4.20
